This is the latest recevied weather packets stored in our database for station/object SR8NGO-1. If no packets are shown the sender has not sent any weather packets the latest 10 day(s).
| Time | Temp. | Humidity | Pressure | Rain* | Wind** | Luminosity | Snow |
|---|---|---|---|---|---|---|---|
| 1777283315 | 13.89° C | 68% | 1009.6 hPa | 137.92 mm | - | - | - |
| 1777283075 | 15° C | 72% | 1009.6 hPa | 137.92 mm | - | - | - |
| 1777282835 | 13.89° C | 73% | 1009.7 hPa | 137.92 mm | - | - | - |
| 1777282595 | 13.89° C | 72% | 1009.7 hPa | 137.92 mm | - | - | - |
| 1777282355 | 12.78° C | 65% | 1009.7 hPa | 137.92 mm | - | - | - |
| 1777282115 | 15° C | 71% | 1009.8 hPa | 137.92 mm | - | - | - |
| 1777281875 | 12.78° C | 71% | 1009.8 hPa | 137.92 mm | - | - | - |
| 1777281635 | 13.89° C | 73% | 1009.9 hPa | 137.92 mm | - | - | - |
| 1777281395 | 12.78° C | 72% | 1009.9 hPa | 137.92 mm | - | - | - |
| 1777281155 | 12.78° C | 67% | 1009.9 hPa | 137.92 mm | - | - | - |
| 1777280915 | 12.78° C | 69% | 1009.9 hPa | 137.92 mm | - | - | - |
| 1777280675 | 13.89° C | 68% | 1010 hPa | 137.92 mm | - | - | - |
| 1777280435 | 12.78° C | 59% | 1010 hPa | 137.92 mm | - | - | - |
| 1777280195 | 13.89° C | 66% | 1010 hPa | 137.92 mm | - | - | - |
| 1777279955 | 15° C | 68% | 1010 hPa | 137.92 mm | - | - | - |
| 1777279715 | 13.89° C | 66% | 1010.1 hPa | 137.92 mm | - | - | - |
| 1777279475 | 12.78° C | 67% | 1010.1 hPa | 137.92 mm | - | - | - |
| 1777279235 | 12.78° C | 65% | 1010.1 hPa | 137.92 mm | - | - | - |
| 1777278995 | 12.78° C | 65% | 1010.1 hPa | 137.92 mm | - | - | - |
| 1777278755 | 13.89° C | 68% | 1010.1 hPa | 137.92 mm | - | - | - |
| 1777278515 | 12.78° C | 68% | 1010.2 hPa | 137.92 mm | - | - | - |
| 1777278275 | 12.78° C | 65% | 1010.3 hPa | 137.92 mm | - | - | - |
| 1777278035 | 12.22° C | 61% | 1010.3 hPa | 137.92 mm | - | - | - |
| 1777277795 | 12.22° C | 61% | 1010.3 hPa | 137.92 mm | - | - | - |
| 1777277555 | 12.22° C | 64% | 1010.4 hPa | 137.92 mm | - | - | - |
* Rain latest hour (hover to see other rain measurements)
** Current wind speed in m/s (hover to see current wind gust speed)